createdAt,value
2018-06-27T00:01:29.525Z,5.13
2018-06-27T00:04:00.929Z,5.20
2018-06-27T00:06:32.070Z,4.77
2018-06-27T00:09:03.170Z,4.73
2018-06-27T00:11:36.492Z,5.30
2018-06-27T00:14:06.874Z,5.13
2018-06-27T00:16:42.392Z,4.90
2018-06-27T00:19:13.535Z,5.40
2018-06-27T00:21:44.669Z,5.27
2018-06-27T00:24:15.696Z,5.83
2018-06-27T00:26:46.833Z,4.97
2018-06-27T00:29:18.221Z,5.00
2018-06-27T00:31:48.622Z,5.20
2018-06-27T00:34:19.001Z,5.03
2018-06-27T00:36:56.714Z,4.90
2018-06-27T00:39:27.097Z,5.33
2018-06-27T00:41:57.474Z,5.53
2018-06-27T00:44:27.870Z,5.00
2018-06-27T00:47:03.368Z,5.07
2018-06-27T00:49:34.530Z,5.20
2018-06-27T00:52:04.917Z,5.73
2018-06-27T00:54:35.295Z,5.53
2018-06-27T00:57:05.688Z,4.93
2018-06-27T00:59:36.008Z,5.00
2018-06-27T01:02:06.317Z,5.20
2018-06-27T01:04:36.718Z,4.97
2018-06-27T01:07:09.141Z,4.80
2018-06-27T01:09:40.283Z,4.70
2018-06-27T01:12:10.698Z,5.50
2018-06-27T01:14:41.080Z,5.10
2018-06-27T01:17:11.653Z,5.20
2018-06-27T01:19:42.040Z,5.60
2018-06-27T01:22:12.362Z,4.93
2018-06-27T01:24:42.688Z,5.70
2018-06-27T01:27:13.090Z,5.20
2018-06-27T01:29:43.462Z,5.40
2018-06-27T01:32:34.249Z,4.97
2018-06-27T01:35:06.675Z,5.00
2018-06-27T01:37:37.821Z,5.17
2018-06-27T01:40:09.174Z,4.83
2018-06-27T01:42:40.318Z,5.20
2018-06-27T01:45:11.447Z,5.20
2018-06-27T01:47:41.867Z,5.03
2018-06-27T01:50:12.240Z,4.83
2018-06-27T01:52:42.618Z,5.00
2018-06-27T01:55:13.016Z,5.30
2018-06-27T01:57:43.392Z,4.87
2018-06-27T02:00:15.166Z,5.10
2018-06-27T02:02:46.529Z,5.37
2018-06-27T02:05:16.893Z,5.27
2018-06-27T02:07:47.281Z,5.00
2018-06-27T02:10:17.674Z,5.07
2018-06-27T02:12:48.054Z,5.20
2018-06-27T02:15:20.477Z,5.40
2018-06-27T02:17:50.901Z,5.47
2018-06-27T02:20:23.323Z,5.70
2018-06-27T02:22:53.707Z,5.70
2018-06-27T02:25:24.118Z,4.93
2018-06-27T02:27:54.486Z,5.20
2018-06-27T02:30:32.404Z,5.30
2018-06-27T02:33:02.772Z,5.17
2018-06-27T02:35:33.170Z,5.17
2018-06-27T02:38:06.648Z,5.50
2018-06-27T02:40:37.039Z,5.13
2018-06-27T02:43:07.417Z,5.57
2018-06-27T02:45:37.823Z,5.17
2018-06-27T02:48:08.196Z,5.67
2018-06-27T02:50:38.586Z,5.07
2018-06-27T02:53:08.978Z,5.23
2018-06-27T02:55:40.117Z,5.80
2018-06-27T02:58:12.531Z,5.33
2018-06-27T03:00:42.946Z,5.57
2018-06-27T03:03:13.377Z,5.80
2018-06-27T03:05:43.699Z,5.83
2018-06-27T03:08:14.111Z,5.60
2018-06-27T03:10:45.244Z,5.37
2018-06-27T03:13:15.692Z,5.90
2018-06-27T03:15:46.209Z,5.27
2018-06-27T03:18:16.655Z,5.57
2018-06-27T03:20:52.110Z,5.77
2018-06-27T03:23:22.493Z,5.73
2018-06-27T03:25:52.811Z,6.07
2018-06-27T03:28:23.212Z,5.83
2018-06-27T03:31:12.973Z,6.27
2018-06-27T03:33:43.369Z,6.87
2018-06-27T03:39:08.777Z,5.90
2018-06-27T03:41:39.153Z,5.97
2018-06-27T03:44:09.532Z,6.37
2018-06-27T03:46:39.923Z,6.33
2018-06-27T03:49:15.094Z,6.60
2018-06-27T03:51:45.437Z,6.03
2018-06-27T03:54:16.586Z,5.87
2018-06-27T03:56:47.728Z,5.63
2018-06-27T03:59:18.131Z,6.13
2018-06-27T04:01:48.510Z,6.47
2018-06-27T04:04:19.907Z,5.80
2018-06-27T04:06:50.316Z,5.90
2018-06-27T04:09:25.478Z,6.20
2018-06-27T04:11:55.900Z,6.53
2018-06-27T04:14:26.309Z,6.07
2018-06-27T04:16:56.665Z,5.60
2018-06-27T04:19:27.070Z,6.00
2018-06-27T04:21:57.459Z,6.00
2018-06-27T04:24:28.557Z,6.00
2018-06-27T04:26:58.954Z,5.87
2018-06-27T04:29:29.345Z,5.83
2018-06-27T04:31:59.660Z,6.23
2018-06-27T04:34:30.786Z,6.10
2018-06-27T04:37:03.209Z,6.47
2018-06-27T04:39:33.539Z,6.43
2018-06-27T04:42:11.091Z,6.40
2018-06-27T04:44:42.251Z,6.40
2018-06-27T04:47:12.627Z,7.03
2018-06-27T04:49:43.035Z,6.27
2018-06-27T04:52:13.414Z,5.83
2018-06-27T04:54:44.498Z,6.57
2018-06-27T04:57:20.985Z,6.63
2018-06-27T04:59:53.390Z,6.30
2018-06-27T05:02:23.843Z,6.80
2018-06-27T05:04:56.226Z,5.97
2018-06-27T05:07:26.606Z,6.53
2018-06-27T05:09:56.981Z,6.17
2018-06-27T05:12:27.401Z,6.33
2018-06-27T05:14:57.785Z,6.60
2018-06-27T05:17:28.169Z,6.40
2018-06-27T05:19:58.592Z,7.07
2018-06-27T05:22:28.963Z,6.60
2018-06-27T05:24:59.324Z,6.70
2018-06-27T05:27:29.841Z,6.73
2018-06-27T05:30:00.821Z,6.50
2018-06-27T05:32:31.207Z,6.00
2018-06-27T05:35:02.383Z,6.73
2018-06-27T05:37:32.753Z,6.53
2018-06-27T05:40:04.154Z,6.60
2018-06-27T05:42:34.555Z,6.13
2018-06-27T05:45:05.694Z,6.23
2018-06-27T05:47:36.857Z,6.23
2018-06-27T05:50:09.047Z,6.90
2018-06-27T05:52:40.456Z,6.90
2018-06-27T05:55:11.025Z,6.50
2018-06-27T05:57:41.435Z,6.53
2018-06-27T06:00:12.580Z,6.90
2018-06-27T06:02:43.014Z,6.87
2018-06-27T06:05:13.548Z,7.43
2018-06-27T06:07:43.924Z,6.87
2018-06-27T06:10:14.311Z,7.10
2018-06-27T06:12:44.706Z,7.20
2018-06-27T06:15:15.081Z,7.60
2018-06-27T06:17:47.504Z,7.13
2018-06-27T06:20:18.850Z,7.10
2018-06-27T06:22:49.989Z,6.83
2018-06-27T06:25:20.612Z,6.63
2018-06-27T06:27:50.934Z,7.03
2018-06-27T06:30:21.317Z,7.57
2018-06-27T06:32:51.713Z,7.43
2018-06-27T06:35:22.059Z,7.57
2018-06-27T06:37:52.442Z,7.33
2018-06-27T06:40:22.817Z,8.27
2018-06-27T06:42:53.228Z,8.70
2018-06-27T06:45:23.611Z,9.07
2018-06-27T06:47:54.201Z,7.83
2018-06-27T06:50:24.612Z,7.73
2018-06-27T06:52:55.725Z,7.83
2018-06-27T06:55:26.103Z,7.57
2018-06-27T06:57:56.510Z,8.40
2018-06-27T07:00:26.883Z,7.97
2018-06-27T07:02:57.271Z,7.27
2018-06-27T07:05:27.688Z,8.73
2018-06-27T07:07:58.077Z,8.20
2018-06-27T07:10:28.469Z,7.97
2018-06-27T07:13:02.976Z,8.53
2018-06-27T07:15:33.374Z,9.03
2018-06-27T07:18:03.759Z,8.80
2018-06-27T07:20:35.192Z,7.47
2018-06-27T07:23:05.582Z,7.23
2018-06-27T07:25:36.736Z,8.20
2018-06-27T07:28:07.915Z,7.90
2018-06-27T07:30:40.346Z,7.20
2018-06-27T07:33:11.483Z,8.20
2018-06-27T07:35:41.905Z,7.50
2018-06-27T07:38:12.282Z,8.30
2018-06-27T07:40:42.680Z,8.27
2018-06-27T07:43:13.094Z,7.87
2018-06-27T07:45:44.239Z,7.53
2018-06-27T07:48:15.379Z,9.00
2018-06-27T07:50:45.806Z,7.97
2018-06-27T07:53:16.198Z,7.60
2018-06-27T07:55:46.594Z,7.23
2018-06-27T08:01:08.776Z,9.07
2018-06-27T08:03:39.191Z,8.13
2018-06-27T08:06:11.615Z,7.10
2018-06-27T08:08:42.766Z,9.00
2018-06-27T08:11:13.937Z,7.07
2018-06-27T08:13:44.310Z,8.63
2018-06-27T08:16:15.331Z,8.80
2018-06-27T08:18:45.736Z,8.00
2018-06-27T08:21:17.141Z,7.57
2018-06-27T08:23:47.592Z,7.73
2018-06-27T08:26:22.203Z,7.93
2018-06-27T08:28:52.416Z,7.50
2018-06-27T08:31:22.812Z,7.90
2018-06-27T08:34:12.321Z,8.33
2018-06-27T08:36:42.695Z,8.23
2018-06-27T08:39:16.166Z,8.53
2018-06-27T08:41:46.596Z,7.93
2018-06-27T08:44:17.000Z,8.33
2018-06-27T08:46:47.371Z,7.30
2018-06-27T08:49:17.786Z,7.50
2018-06-27T08:51:48.165Z,7.27
2018-06-27T08:54:18.555Z,7.70
2018-06-27T08:56:48.965Z,7.30
2018-06-27T08:59:19.351Z,7.40
2018-06-27T09:01:49.753Z,7.30
2018-06-27T09:04:40.278Z,7.40
2018-06-27T09:07:10.847Z,7.00
2018-06-27T09:09:41.229Z,6.67
2018-06-27T09:12:13.771Z,6.90
2018-06-27T09:14:44.085Z,7.33
2018-06-27T09:17:14.399Z,6.27
2018-06-27T09:19:44.819Z,6.43
2018-06-27T09:22:15.931Z,7.53
2018-06-27T09:24:46.320Z,7.83
2018-06-27T09:27:20.807Z,6.90
2018-06-27T09:29:52.959Z,7.40
2018-06-27T09:32:23.333Z,6.67
2018-06-27T09:34:53.717Z,6.73
2018-06-27T09:37:24.874Z,6.73
2018-06-27T09:39:55.324Z,7.13
2018-06-27T09:42:25.665Z,6.70
2018-06-27T09:44:56.041Z,6.20
2018-06-27T09:47:26.427Z,6.73
2018-06-27T09:49:56.828Z,7.53
2018-06-27T09:52:27.233Z,6.77
2018-06-27T09:54:57.633Z,6.40
2018-06-27T09:57:28.035Z,6.73
2018-06-27T09:59:58.427Z,6.80
2018-06-27T10:02:28.813Z,6.20
2018-06-27T10:04:59.227Z,6.23
2018-06-27T10:07:30.281Z,6.80
2018-06-27T10:10:01.323Z,6.83
2018-06-27T10:12:31.762Z,6.60
2018-06-27T10:15:02.184Z,6.43
2018-06-27T10:17:32.576Z,7.07
2018-06-27T10:20:03.642Z,6.43
2018-06-27T10:22:34.091Z,6.80
2018-06-27T10:25:04.425Z,7.40
2018-06-27T10:27:34.873Z,6.47
2018-06-27T10:30:05.238Z,6.23
2018-06-27T10:32:35.618Z,6.43
2018-06-27T10:35:06.032Z,6.83
2018-06-27T10:37:37.181Z,6.77
2018-06-27T10:40:07.810Z,6.50
2018-06-27T10:42:44.290Z,7.20
2018-06-27T10:45:14.673Z,6.77
2018-06-27T10:47:45.052Z,6.90
2018-06-27T10:50:15.471Z,6.40
2018-06-27T10:52:45.860Z,6.60
2018-06-27T10:55:16.225Z,6.27
2018-06-27T10:57:46.618Z,6.70
2018-06-27T11:00:17.026Z,6.33
2018-06-27T11:02:47.611Z,6.73
2018-06-27T11:05:18.036Z,6.10
2018-06-27T11:07:49.160Z,6.03
2018-06-27T11:10:20.313Z,6.10
2018-06-27T11:12:50.669Z,6.90
2018-06-27T11:15:22.067Z,7.37
2018-06-27T11:17:53.227Z,6.47
2018-06-27T11:20:24.423Z,6.00
2018-06-27T11:22:54.783Z,6.30
2018-06-27T11:25:25.176Z,6.33
2018-06-27T11:27:59.647Z,6.40
2018-06-27T11:30:30.032Z,6.40
2018-06-27T11:33:01.422Z,6.90
2018-06-27T11:35:33.040Z,7.60
2018-06-27T11:38:03.425Z,6.67
2018-06-27T11:40:33.808Z,7.00
2018-06-27T11:43:04.288Z,7.10
2018-06-27T11:45:34.545Z,6.90
2018-06-27T11:48:04.931Z,7.30
2018-06-27T11:50:35.336Z,6.70
2018-06-27T11:53:06.495Z,7.17
2018-06-27T11:55:36.875Z,6.57
2018-06-27T11:58:07.277Z,6.27
2018-06-27T12:00:37.649Z,6.70
2018-06-27T12:03:09.695Z,6.33
2018-06-27T12:05:40.096Z,6.77
2018-06-27T12:08:12.512Z,6.33
2018-06-27T12:10:43.657Z,6.50
2018-06-27T12:13:14.002Z,5.77
2018-06-27T12:18:33.986Z,5.80
2018-06-27T12:21:04.430Z,6.07
2018-06-27T12:23:34.736Z,6.23
2018-06-27T12:26:05.151Z,6.77
2018-06-27T12:28:35.538Z,6.03
2018-06-27T12:31:05.920Z,6.20
2018-06-27T12:33:36.311Z,6.60
2018-06-27T12:36:06.625Z,6.80
2018-06-27T12:38:37.003Z,6.43
2018-06-27T12:41:08.175Z,6.70
2018-06-27T12:43:38.520Z,6.13
2018-06-27T12:46:08.901Z,6.50
2018-06-27T12:48:40.077Z,6.70
2018-06-27T12:51:10.465Z,7.00
2018-06-27T12:53:40.852Z,7.53
2018-06-27T12:56:11.432Z,6.70
2018-06-27T12:58:42.574Z,7.07
2018-06-27T13:01:13.917Z,6.77
2018-06-27T13:03:45.731Z,7.03
2018-06-27T13:06:16.123Z,6.90
2018-06-27T13:08:47.285Z,6.53
2018-06-27T13:11:17.694Z,6.57
2018-06-27T13:13:48.081Z,6.40
2018-06-27T13:16:18.451Z,6.10
2018-06-27T13:18:48.843Z,6.13
2018-06-27T13:21:19.237Z,5.73
2018-06-27T13:23:49.602Z,6.03
2018-06-27T13:26:20.016Z,6.17
2018-06-27T13:28:50.390Z,6.47
2018-06-27T13:31:20.958Z,6.00
2018-06-27T13:33:51.369Z,6.50
2018-06-27T13:36:28.905Z,6.33
2018-06-27T13:39:00.042Z,6.37
2018-06-27T13:41:30.418Z,6.13
2018-06-27T13:44:00.980Z,6.60
2018-06-27T13:46:31.574Z,6.20
2018-06-27T13:49:01.962Z,6.23
2018-06-27T13:51:36.953Z,5.83
2018-06-27T13:54:10.336Z,6.23
2018-06-27T13:56:40.662Z,6.33
2018-06-27T13:59:11.079Z,6.00
2018-06-27T14:01:41.406Z,6.47
2018-06-27T14:04:11.782Z,5.90
2018-06-27T14:06:42.197Z,6.73
2018-06-27T14:09:31.940Z,5.73
2018-06-27T14:12:02.422Z,6.20
2018-06-27T14:14:32.741Z,5.87
2018-06-27T14:17:03.058Z,5.87
2018-06-27T14:19:33.476Z,5.67
2018-06-27T14:22:03.860Z,5.13
2018-06-27T14:24:35.013Z,6.00
2018-06-27T14:27:05.419Z,5.87
2018-06-27T14:29:36.563Z,5.70
2018-06-27T14:32:06.946Z,6.10
2018-06-27T14:34:57.945Z,5.53
2018-06-27T14:37:28.323Z,5.80
2018-06-27T14:39:59.498Z,5.73
2018-06-27T14:42:30.659Z,6.00
2018-06-27T14:45:01.045Z,5.67
2018-06-27T14:47:32.170Z,5.93
2018-06-27T14:50:02.576Z,5.77
2018-06-27T14:52:32.955Z,5.60
2018-06-27T14:55:03.352Z,5.90
2018-06-27T14:57:33.766Z,5.67
2018-06-27T15:00:04.168Z,5.90
2018-06-27T15:02:34.547Z,6.27
2018-06-27T15:05:05.733Z,5.57
2018-06-27T15:07:36.112Z,5.97
2018-06-27T15:10:06.485Z,5.70
2018-06-27T15:12:38.305Z,6.47
2018-06-27T15:15:09.263Z,6.50
2018-06-27T15:17:39.587Z,6.20
2018-06-27T15:20:10.008Z,6.30
2018-06-27T15:22:41.151Z,5.93
2018-06-27T15:25:12.984Z,6.17
2018-06-27T15:27:43.397Z,6.13
2018-06-27T15:30:13.769Z,6.10
2018-06-27T15:32:44.163Z,5.77
2018-06-27T15:35:14.647Z,6.30
2018-06-27T15:37:44.984Z,5.97
2018-06-27T15:40:15.370Z,5.63
2018-06-27T15:42:45.773Z,6.17
2018-06-27T15:45:16.182Z,6.67
2018-06-27T15:47:46.560Z,5.93
2018-06-27T15:50:16.964Z,6.40
2018-06-27T15:52:47.362Z,6.23
2018-06-27T15:55:17.735Z,6.40
2018-06-27T15:57:48.213Z,6.03
2018-06-27T16:00:19.310Z,6.20
2018-06-27T16:02:49.693Z,6.00
2018-06-27T16:05:20.104Z,6.00
2018-06-27T16:07:52.531Z,6.37
2018-06-27T16:10:22.924Z,5.93
2018-06-27T16:12:53.342Z,6.30
2018-06-27T16:15:23.658Z,5.83
2018-06-27T16:17:57.132Z,6.57
2018-06-27T16:20:30.356Z,6.10
2018-06-27T16:25:49.146Z,5.90
2018-06-27T16:28:19.465Z,5.97
2018-06-27T16:30:49.914Z,5.77
2018-06-27T16:33:20.184Z,6.50
2018-06-27T16:35:54.657Z,6.30
2018-06-27T16:38:27.881Z,6.63
2018-06-27T16:40:59.004Z,6.43
2018-06-27T16:43:30.271Z,6.70
2018-06-27T16:46:00.550Z,6.17
2018-06-27T16:48:30.936Z,6.27
2018-06-27T16:51:04.133Z,6.50
2018-06-27T16:53:37.171Z,5.87
2018-06-27T16:56:07.527Z,5.90
2018-06-27T16:58:38.556Z,5.93
2018-06-27T17:01:09.905Z,6.03
2018-06-27T17:03:40.026Z,6.20
2018-06-27T17:06:11.165Z,6.07
2018-06-27T17:08:42.316Z,5.70
2018-06-27T17:11:13.445Z,5.97
2018-06-27T17:13:47.820Z,5.93
2018-06-27T17:16:36.510Z,5.90
2018-06-27T17:19:07.681Z,6.33
2018-06-27T17:21:59.404Z,5.80
2018-06-27T17:24:33.089Z,5.53
2018-06-27T17:27:08.423Z,5.63
2018-06-27T17:29:55.998Z,6.33
2018-06-27T17:32:29.226Z,4.90
2018-06-27T17:34:59.564Z,5.83
2018-06-27T17:37:29.925Z,5.33
2018-06-27T17:40:00.292Z,5.37
2018-06-27T17:42:41.284Z,5.93
2018-06-27T17:45:11.600Z,5.60
2018-06-27T17:47:42.931Z,5.97
2018-06-27T17:50:13.324Z,6.30
2018-06-27T17:52:44.465Z,6.20
2018-06-27T17:55:17.758Z,5.70
2018-06-27T17:57:48.155Z,6.20
2018-06-27T18:00:21.144Z,5.73
2018-06-27T18:02:53.921Z,6.03
2018-06-27T18:05:27.156Z,5.63
2018-06-27T18:07:57.525Z,5.60
2018-06-27T18:10:27.890Z,6.03
2018-06-27T18:13:04.269Z,5.60
2018-06-27T18:15:37.564Z,6.17
2018-06-27T18:18:07.950Z,5.73
2018-06-27T18:20:38.349Z,5.93
2018-06-27T18:23:08.738Z,5.80
2018-06-27T18:25:39.086Z,5.83
2018-06-27T18:28:17.905Z,6.03
2018-06-27T18:30:48.274Z,6.10
2018-06-27T18:33:42.895Z,6.40
2018-06-27T18:36:13.211Z,6.70
2018-06-27T18:38:44.610Z,5.97
2018-06-27T18:41:15.025Z,6.83
2018-06-27T18:43:49.004Z,6.70
2018-06-27T18:46:19.390Z,6.17
2018-06-27T18:48:57.705Z,6.10
2018-06-27T18:51:29.102Z,6.30
2018-06-27T18:53:59.457Z,6.97
2018-06-27T18:56:30.084Z,7.03
2018-06-27T18:59:03.727Z,6.93
2018-06-27T19:01:53.493Z,7.33
2018-06-27T19:04:24.889Z,7.47
2018-06-27T19:06:55.207Z,7.23
2018-06-27T19:09:25.539Z,6.83
2018-06-27T19:14:48.093Z,7.10
2018-06-27T19:17:18.449Z,7.33
2018-06-27T19:19:49.530Z,7.53
2018-06-27T19:22:19.937Z,8.07
2018-06-27T19:24:50.322Z,7.30
2018-06-27T19:27:20.697Z,7.70
2018-06-27T19:29:51.089Z,6.73
2018-06-27T19:32:22.221Z,7.60
2018-06-27T19:34:52.585Z,7.47
2018-06-27T19:37:23.005Z,7.47
2018-06-27T19:39:56.029Z,6.87
2018-06-27T19:42:51.619Z,7.97
2018-06-27T19:45:24.906Z,7.03
2018-06-27T19:47:56.015Z,7.63
2018-06-27T19:50:26.422Z,7.83
2018-06-27T19:52:56.810Z,7.97
2018-06-27T19:55:30.441Z,7.53
2018-06-27T19:58:01.546Z,6.67
2018-06-27T20:00:32.687Z,7.50
2018-06-27T20:03:06.205Z,6.83
2018-06-27T20:05:36.550Z,7.03
2018-06-27T20:08:06.926Z,7.23
2018-06-27T20:10:38.173Z,6.50
2018-06-27T20:13:09.280Z,7.27
2018-06-27T20:15:42.219Z,6.60
2018-06-27T20:18:12.600Z,7.03
2018-06-27T20:20:43.011Z,7.37
2018-06-27T20:23:14.408Z,7.23
2018-06-27T20:25:45.560Z,7.17
2018-06-27T20:28:16.721Z,7.03
2018-06-27T20:30:47.105Z,6.93
2018-06-27T20:33:20.100Z,6.60
2018-06-27T20:35:53.262Z,6.80
2018-06-27T20:38:26.167Z,6.93
2018-06-27T20:41:02.113Z,7.10
2018-06-27T20:43:32.493Z,6.90
2018-06-27T20:46:02.877Z,6.30
2018-06-27T20:48:33.269Z,6.47
2018-06-27T20:51:05.690Z,7.07
2018-06-27T20:53:39.654Z,6.83
2018-06-27T20:56:10.028Z,7.03
2018-06-27T20:58:43.594Z,6.37
2018-06-27T21:01:19.176Z,6.03
2018-06-27T21:03:49.486Z,6.27
2018-06-27T21:06:19.848Z,6.60
2018-06-27T21:08:53.865Z,6.43
2018-06-27T21:11:26.711Z,6.70
2018-06-27T21:13:57.039Z,6.17
2018-06-27T21:16:27.456Z,6.17
2018-06-27T21:18:58.027Z,6.23
2018-06-27T21:21:31.335Z,6.20
2018-06-27T21:24:04.367Z,6.10
2018-06-27T21:26:34.740Z,6.37
2018-06-27T21:29:05.310Z,6.03
2018-06-27T21:31:36.380Z,6.67
2018-06-27T21:34:06.768Z,6.67
2018-06-27T21:36:38.169Z,6.40
2018-06-27T21:39:09.323Z,6.03
2018-06-27T21:41:40.474Z,6.60
2018-06-27T21:44:10.847Z,5.97
2018-06-27T21:47:00.625Z,5.90
2018-06-27T21:49:30.997Z,5.97
2018-06-27T21:52:02.132Z,5.50
2018-06-27T21:54:32.540Z,6.10
2018-06-27T21:57:02.864Z,6.47
2018-06-27T21:59:34.263Z,6.93
2018-06-27T22:02:04.671Z,6.60
2018-06-27T22:04:35.812Z,6.20
2018-06-27T22:07:06.962Z,6.60
2018-06-27T22:09:37.365Z,6.30
2018-06-27T22:12:08.413Z,5.67
2018-06-27T22:14:38.795Z,6.03
2018-06-27T22:17:13.258Z,6.57
2018-06-27T22:19:43.612Z,6.60
2018-06-27T22:22:15.783Z,6.67
2018-06-27T22:24:46.196Z,5.73
2018-06-27T22:27:16.574Z,5.67
2018-06-27T22:29:46.946Z,5.90
2018-06-27T22:32:18.113Z,6.40
2018-06-27T22:34:48.429Z,6.63
2018-06-27T22:37:18.811Z,6.00
2018-06-27T22:39:49.222Z,6.10
2018-06-27T22:42:41.027Z,5.80
2018-06-27T22:45:13.402Z,5.57
2018-06-27T22:47:43.779Z,5.83
2018-06-27T22:50:14.440Z,6.13
2018-06-27T22:52:45.617Z,6.07
2018-06-27T22:55:20.793Z,5.73
2018-06-27T22:57:51.180Z,6.40
2018-06-27T23:00:21.766Z,5.93
2018-06-27T23:02:52.899Z,6.27
2018-06-27T23:05:23.283Z,6.17
2018-06-27T23:07:53.623Z,6.20
2018-06-27T23:10:46.183Z,6.30
2018-06-27T23:13:16.582Z,6.57
2018-06-27T23:15:47.981Z,6.53
2018-06-27T23:18:18.356Z,6.27
2018-06-27T23:20:48.766Z,6.80
2018-06-27T23:23:19.383Z,5.90
2018-06-27T23:25:50.736Z,6.30
2018-06-27T23:28:21.142Z,5.67
2018-06-27T23:30:51.526Z,6.50
2018-06-27T23:36:15.382Z,5.47
2018-06-27T23:38:46.530Z,6.17
2018-06-27T23:41:16.889Z,6.50
2018-06-27T23:43:47.223Z,6.30
2018-06-27T23:46:17.603Z,6.07
2018-06-27T23:48:48.743Z,6.43
2018-06-27T23:51:19.132Z,6.30
2018-06-27T23:53:49.506Z,6.40
2018-06-27T23:56:20.649Z,5.97
2018-06-27T23:58:51.050Z,6.40
